createdAt,value
2018-02-25T00:59:43.176Z,64.21
2018-02-25T01:02:11.932Z,64.18
2018-02-25T01:47:45.257Z,65.98
2018-02-25T02:02:28.432Z,65.34
2018-02-25T02:04:56.525Z,64.95
2018-02-25T09:14:17.759Z,44.12
2018-02-25T11:17:07.664Z,36.39
2018-02-25T11:39:12.611Z,36.86
2018-02-25T11:41:49.765Z,38.39
2018-02-25T11:44:21.571Z,38.36
2018-02-25T11:47:05.213Z,37.56
2018-02-25T11:49:38.048Z,37.52
2018-02-25T11:52:07.697Z,37.83
2018-02-25T11:54:43.407Z,36.73
2018-02-25T11:57:20.554Z,36.29
2018-02-25T11:59:48.505Z,35.67
2018-02-25T12:02:17.397Z,36.98
2018-02-25T12:04:45.994Z,38.98
2018-02-25T12:07:16.931Z,38.21
2018-02-25T12:12:32.407Z,35.10
2018-02-25T12:15:00.798Z,36.12
2018-02-25T12:17:28.868Z,36.55
2018-02-25T12:22:28.957Z,35.70
2018-02-25T12:25:02.312Z,35.66
2018-02-25T12:27:32.904Z,36.06
2018-02-25T12:30:02.797Z,35.11
2018-02-25T12:32:31.464Z,34.95
2018-02-25T12:35:00.863Z,33.84
2018-02-25T12:37:28.627Z,33.90
2018-02-25T12:39:57.373Z,35.66
2018-02-25T12:42:25.309Z,35.45
2018-02-25T12:44:55.979Z,35.45
2018-02-25T12:47:25.920Z,36.64
2018-02-25T12:49:56.100Z,35.39
2018-02-25T12:52:24.005Z,35.18
2018-02-25T12:54:53.137Z,35.98
2018-02-25T12:57:22.496Z,35.26
2018-02-25T13:02:33.793Z,34.97
2018-02-25T13:05:02.280Z,37.51
2018-02-25T13:07:53.994Z,35.30
2018-02-25T13:10:24.261Z,35.94
2018-02-25T13:13:02.724Z,36.23
2018-02-25T13:15:33.845Z,35.61
2018-02-25T13:18:24.540Z,37.13
2018-02-25T13:20:56.429Z,37.06
2018-02-25T13:23:25.000Z,37.06
2018-02-25T13:26:11.636Z,36.07
2018-02-25T13:28:42.708Z,37.22
2018-02-25T13:31:12.371Z,36.78
2018-02-25T13:33:47.810Z,35.71
2018-02-25T13:36:15.904Z,37.45
2018-02-25T13:38:45.231Z,37.42
2018-02-25T13:41:16.485Z,38.42
2018-02-25T13:43:45.460Z,38.49
2018-02-25T13:46:15.360Z,38.31
2018-02-25T13:48:46.769Z,37.14
2018-02-25T13:51:19.276Z,36.70
2018-02-25T13:53:47.123Z,37.99
2018-02-25T13:56:26.601Z,36.91
2018-02-25T13:58:54.726Z,37.03
2018-02-25T14:01:24.392Z,36.56
2018-02-25T14:03:54.508Z,37.92
2018-02-25T14:06:22.569Z,38.60
2018-02-25T14:08:50.638Z,37.92
2018-02-25T14:11:18.642Z,39.04
2018-02-25T14:13:46.678Z,38.77
2018-02-25T14:16:14.719Z,39.86
2018-02-25T14:18:42.668Z,39.40
2018-02-25T14:21:11.803Z,40.81
2018-02-25T14:23:39.691Z,40.90
2018-02-25T14:26:07.864Z,40.94
2018-02-25T14:28:35.812Z,40.78
2018-02-25T14:31:10.252Z,40.69
2018-02-25T14:33:49.910Z,41.35
2018-02-25T14:36:18.824Z,40.87
2018-02-25T14:38:51.191Z,41.21
2018-02-25T14:41:20.345Z,41.19
2018-02-25T14:43:51.727Z,40.78
2018-02-25T14:46:31.018Z,40.17
2018-02-25T14:49:03.048Z,39.63
2018-02-25T14:51:32.203Z,39.46
2018-02-25T14:54:04.421Z,33.64
2018-02-25T14:56:33.837Z,36.37
2018-02-25T14:59:02.798Z,36.59
2018-02-25T15:01:30.740Z,35.79
2018-02-25T15:04:00.263Z,34.25
2018-02-25T15:06:29.543Z,38.45
2018-02-25T15:09:02.149Z,36.56
2018-02-25T15:11:31.715Z,37.92
2018-02-25T15:14:03.533Z,41.16
2018-02-25T15:16:32.379Z,36.08
2018-02-25T15:19:04.147Z,40.22
2018-02-25T15:21:55.020Z,39.34
2018-02-25T15:24:22.874Z,37.81
2018-02-25T15:26:53.303Z,36.41
2018-02-25T15:29:23.969Z,34.40
2018-02-25T15:32:04.815Z,36.62
2018-02-25T15:34:39.056Z,38.51
2018-02-25T15:39:43.892Z,37.14
2018-02-25T15:42:16.627Z,38.52
2018-02-25T15:44:44.381Z,36.77
2018-02-25T15:47:13.385Z,36.16
2018-02-25T15:49:49.752Z,41.37
2018-02-25T15:52:18.291Z,43.79
2018-02-25T15:54:55.710Z,45.93
2018-02-25T15:57:37.985Z,47.38
2018-02-25T16:00:09.471Z,48.18
2018-02-25T16:02:44.260Z,46.68
2018-02-25T16:05:16.388Z,48.08
2018-02-25T16:08:04.194Z,49.37
2018-02-25T16:10:33.904Z,50.92
2018-02-25T16:16:28.518Z,50.55
2018-02-25T16:25:38.609Z,50.83
2018-02-25T16:28:13.082Z,49.78
2018-02-25T16:33:53.192Z,51.04
2018-02-25T16:36:31.425Z,52.53
2018-02-25T16:58:53.766Z,55.34
2018-02-25T17:01:24.270Z,56.03
2018-02-25T17:04:19.409Z,56.59
2018-02-25T17:06:49.497Z,57.04
2018-02-25T17:09:20.114Z,57.16
2018-02-25T17:15:15.363Z,56.96
2018-02-25T17:18:31.446Z,57.20
2018-02-25T17:21:02.289Z,57.13
2018-02-25T17:26:16.752Z,57.08
2018-02-25T17:28:44.671Z,56.13
2018-02-25T17:35:08.263Z,56.56
2018-02-25T17:37:41.631Z,56.94
2018-02-25T17:40:12.236Z,56.14
2018-02-25T17:45:34.116Z,55.65
2018-02-25T17:48:02.647Z,56.17
2018-02-25T17:58:06.585Z,55.26
2018-02-25T18:21:05.614Z,55.44
2018-02-25T18:23:46.933Z,54.58
2018-02-25T18:55:10.462Z,51.70
2018-02-25T18:57:57.468Z,51.56
2018-02-25T19:00:26.422Z,51.49
2018-02-25T19:33:00.447Z,53.66
2018-02-25T20:05:52.612Z,57.48
2018-02-25T20:08:23.675Z,57.30
2018-02-25T20:10:54.188Z,57.21
2018-02-25T20:32:08.133Z,56.38
2018-02-25T20:48:00.705Z,55.15
2018-02-25T20:58:22.653Z,57.62
2018-02-25T21:24:16.692Z,58.66
2018-02-25T21:45:43.086Z,61.32
2018-02-25T21:48:20.421Z,61.72
2018-02-25T22:21:50.244Z,61.59
